createdAt,value
2018-12-23T00:00:54.222Z,9.48
2018-12-23T00:01:54.437Z,9.49
2018-12-23T00:02:54.145Z,9.47
2018-12-23T00:03:54.502Z,9.47
2018-12-23T00:04:54.198Z,9.48
2018-12-23T00:05:54.255Z,9.47
2018-12-23T00:06:54.129Z,9.47
2018-12-23T00:07:54.133Z,9.47
2018-12-23T00:08:54.135Z,9.48
2018-12-23T00:09:54.287Z,9.47
2018-12-23T00:10:54.111Z,9.51
2018-12-23T00:11:54.075Z,9.52
2018-12-23T00:12:54.101Z,9.47
2018-12-23T00:13:54.059Z,9.48
2018-12-23T00:14:54.079Z,9.51
2018-12-23T00:15:54.091Z,9.48
2018-12-23T00:16:54.196Z,9.48
2018-12-23T00:17:54.140Z,9.47
2018-12-23T00:18:54.137Z,9.45
2018-12-23T00:19:54.119Z,9.47
2018-12-23T00:20:54.059Z,9.49
2018-12-23T00:21:54.122Z,9.45
2018-12-23T00:22:54.057Z,9.44
2018-12-23T00:23:54.075Z,9.44
2018-12-23T00:24:54.120Z,9.47
2018-12-23T00:25:54.247Z,9.42
2018-12-23T00:26:54.342Z,9.44
2018-12-23T00:28:58.984Z,9.45
2018-12-23T00:29:56.471Z,9.45
2018-12-23T00:30:56.908Z,9.42
2018-12-23T00:31:56.330Z,9.4
2018-12-23T00:32:56.302Z,9.4
2018-12-23T00:34:56.393Z,9.4
2018-12-23T00:35:59.889Z,9.4
2018-12-23T00:37:01.726Z,9.38
2018-12-23T00:37:56.241Z,9.37
2018-12-23T00:38:56.967Z,9.35
2018-12-23T00:39:56.685Z,9.35
2018-12-23T00:42:57.070Z,9.31
2018-12-23T00:45:15.054Z,9.3
2018-12-23T00:46:08.959Z,9.26
2018-12-23T00:47:08.711Z,9.26
2018-12-23T00:47:10.186Z,9.3
2018-12-23T00:48:08.852Z,9.26
2018-12-23T00:49:08.711Z,9.23
2018-12-23T00:50:08.735Z,9.21
2018-12-23T00:51:08.865Z,9.2
2018-12-23T00:52:29.967Z,9.14
2018-12-23T00:54:13.052Z,9.14
2018-12-23T00:55:08.830Z,9.13
2018-12-23T00:56:24.917Z,9.1
2018-12-23T00:57:08.861Z,9.1
2018-12-23T01:00:13.165Z,9.04
2018-12-23T01:03:14.502Z,8.99
2018-12-23T01:04:08.856Z,8.96
2018-12-23T01:05:09.074Z,8.96
2018-12-23T01:06:12.680Z,8.93
2018-12-23T01:07:09.142Z,8.93
2018-12-23T01:08:14.142Z,8.92
2018-12-23T01:10:00.392Z,8.92
2018-12-23T01:10:08.682Z,8.91
2018-12-23T01:11:08.739Z,8.93
2018-12-23T01:12:09.155Z,8.92
2018-12-23T01:13:10.396Z,8.92
2018-12-23T01:14:10.353Z,8.89
2018-12-23T01:15:08.862Z,8.89
2018-12-23T01:16:09.079Z,8.88
2018-12-23T01:17:09.049Z,8.85
2018-12-23T01:18:08.751Z,8.86
2018-12-23T01:19:08.641Z,8.85
2018-12-23T01:20:08.973Z,8.83
2018-12-23T01:21:09.872Z,8.8
2018-12-23T01:22:08.720Z,8.83
2018-12-23T01:23:08.959Z,8.82
2018-12-23T01:26:08.948Z,8.74
2018-12-23T01:29:16.444Z,8.72
2018-12-23T01:30:09.011Z,8.69
2018-12-23T01:31:08.632Z,8.71
2018-12-23T01:32:08.994Z,8.74
2018-12-23T01:33:08.654Z,8.75
2018-12-23T01:34:13.381Z,8.75
2018-12-23T01:35:12.824Z,8.75
2018-12-23T01:36:11.264Z,8.76
2018-12-23T01:37:08.655Z,8.78
2018-12-23T01:38:08.749Z,8.79
2018-12-23T01:39:08.865Z,8.79
2018-12-23T01:40:08.837Z,8.8
2018-12-23T01:41:08.788Z,8.82
2018-12-23T01:42:08.835Z,8.82
2018-12-23T01:43:08.784Z,8.82
2018-12-23T01:44:09.332Z,8.82
2018-12-23T01:45:09.814Z,8.89
2018-12-23T01:46:08.882Z,8.89
2018-12-23T01:47:08.902Z,8.91
2018-12-23T01:48:08.651Z,8.91
2018-12-23T01:49:08.687Z,8.88
2018-12-23T01:50:08.607Z,8.88
2018-12-23T01:51:11.473Z,8.88
2018-12-23T01:52:14.653Z,8.89
2018-12-23T01:53:08.669Z,8.86
2018-12-23T01:54:08.715Z,8.89
2018-12-23T01:55:08.625Z,8.88
2018-12-23T01:56:08.903Z,8.86
2018-12-23T01:57:08.613Z,8.86
2018-12-23T01:58:09.497Z,8.86
2018-12-23T01:59:08.693Z,8.91
2018-12-23T02:00:08.631Z,8.91
2018-12-23T02:01:11.091Z,8.86
2018-12-23T02:02:10.123Z,8.89
2018-12-23T02:03:09.230Z,8.93
2018-12-23T02:04:08.620Z,8.86
2018-12-23T02:05:08.685Z,8.91
2018-12-23T02:06:10.554Z,8.89
2018-12-23T02:07:08.615Z,8.86
2018-12-23T02:08:09.680Z,8.85
2018-12-23T02:09:08.637Z,8.85
2018-12-23T02:10:08.939Z,8.83
2018-12-23T02:11:08.624Z,8.8
2018-12-23T02:12:09.940Z,8.8
2018-12-23T02:13:09.882Z,8.82
2018-12-23T02:14:08.661Z,8.82
2018-12-23T02:15:08.791Z,8.8
2018-12-23T02:16:08.844Z,8.8
2018-12-23T02:17:08.817Z,8.82
2018-12-23T02:18:08.778Z,8.8
2018-12-23T02:19:09.467Z,8.79
2018-12-23T02:20:09.487Z,8.79
2018-12-23T02:21:08.614Z,8.78
2018-12-23T02:22:13.061Z,8.78
2018-12-23T02:23:09.947Z,8.79
2018-12-23T02:24:09.515Z,8.78
2018-12-23T02:25:08.638Z,8.8
2018-12-23T02:26:11.010Z,8.83
2018-12-23T02:27:11.351Z,8.82
2018-12-23T02:28:11.418Z,8.82
2018-12-23T02:29:15.500Z,8.8
2018-12-23T02:30:10.468Z,8.8
2018-12-23T02:31:10.824Z,8.82
2018-12-23T02:32:09.052Z,8.8
2018-12-23T02:33:08.759Z,8.8
2018-12-23T02:34:08.723Z,8.83
2018-12-23T02:35:08.754Z,8.85
2018-12-23T02:36:08.721Z,8.85
2018-12-23T02:37:08.659Z,8.86
2018-12-23T02:38:08.939Z,8.8
2018-12-23T02:39:08.808Z,8.83
2018-12-23T02:40:08.647Z,8.82
2018-12-23T02:41:08.760Z,8.8
2018-12-23T02:42:08.625Z,8.79
2018-12-23T02:43:08.653Z,8.79
2018-12-23T02:44:08.770Z,8.79
2018-12-23T02:45:08.746Z,8.78
2018-12-23T02:46:08.541Z,8.82
2018-12-23T02:47:08.803Z,8.8
2018-12-23T02:48:08.554Z,8.8
2018-12-23T02:49:08.932Z,8.76
2018-12-23T02:50:08.576Z,8.78
2018-12-23T02:51:08.587Z,8.76
2018-12-23T02:52:08.613Z,8.79
2018-12-23T02:53:08.601Z,8.76
2018-12-23T02:54:09.059Z,8.79
2018-12-23T02:55:08.364Z,8.76
2018-12-23T02:56:08.917Z,8.79
2018-12-23T02:57:08.630Z,8.78
2018-12-23T02:58:08.980Z,8.76
2018-12-23T02:59:08.923Z,8.76
2018-12-23T03:00:08.814Z,8.8
2018-12-23T03:01:09.044Z,8.79
2018-12-23T03:02:08.580Z,8.79
2018-12-23T03:03:08.806Z,8.82
2018-12-23T03:04:08.671Z,8.79
2018-12-23T03:05:08.530Z,8.79
2018-12-23T03:06:08.541Z,8.79
2018-12-23T03:07:08.946Z,8.8
2018-12-23T03:08:08.626Z,8.78
2018-12-23T03:09:08.914Z,8.79
2018-12-23T03:10:08.913Z,8.78
2018-12-23T03:11:08.658Z,8.75
2018-12-23T03:12:08.939Z,8.75
2018-12-23T03:13:08.692Z,8.78
2018-12-23T03:14:08.877Z,8.75
2018-12-23T03:15:08.549Z,8.76
2018-12-23T03:16:08.639Z,8.74
2018-12-23T03:17:08.570Z,8.76
2018-12-23T03:18:08.617Z,8.76
2018-12-23T03:19:08.926Z,8.74
2018-12-23T03:20:08.511Z,8.74
2018-12-23T03:21:08.541Z,8.74
2018-12-23T03:22:08.758Z,8.75
2018-12-23T03:23:08.493Z,8.72
2018-12-23T03:24:08.535Z,8.76
2018-12-23T03:25:08.728Z,8.74
2018-12-23T03:26:08.609Z,8.75
2018-12-23T03:27:08.512Z,8.72
2018-12-23T03:28:08.649Z,8.71
2018-12-23T03:29:08.585Z,8.74
2018-12-23T03:30:08.536Z,8.75
2018-12-23T03:31:08.617Z,8.74
2018-12-23T03:32:08.712Z,8.69
2018-12-23T03:33:08.523Z,8.72
2018-12-23T03:34:08.519Z,8.71
2018-12-23T03:35:08.541Z,8.69
2018-12-23T03:36:15.663Z,8.69
2018-12-23T03:37:08.542Z,8.71
2018-12-23T03:38:08.547Z,8.71
2018-12-23T03:39:08.556Z,8.71
2018-12-23T03:40:08.497Z,8.71
2018-12-23T03:41:08.528Z,8.68
2018-12-23T03:42:08.501Z,8.66
2018-12-23T03:43:08.527Z,8.68
2018-12-23T03:44:08.539Z,8.69
2018-12-23T03:45:08.511Z,8.71
2018-12-23T03:46:08.529Z,8.71
2018-12-23T03:47:08.750Z,8.69
2018-12-23T03:48:08.506Z,8.69
2018-12-23T03:49:08.935Z,8.74
2018-12-23T03:50:08.617Z,8.69
2018-12-23T03:51:08.505Z,8.69
2018-12-23T03:52:08.773Z,8.69
2018-12-23T03:53:08.977Z,8.68
2018-12-23T03:54:08.473Z,8.68
2018-12-23T03:55:08.677Z,8.66
2018-12-23T03:56:08.643Z,8.69
2018-12-23T03:57:08.644Z,8.68
2018-12-23T03:58:08.802Z,8.71
2018-12-23T03:59:08.731Z,8.69
2018-12-23T04:00:08.498Z,8.68
2018-12-23T04:01:08.503Z,8.66
2018-12-23T04:02:08.457Z,8.68
2018-12-23T04:03:08.495Z,8.68
2018-12-23T04:04:08.549Z,8.66
2018-12-23T04:05:08.514Z,8.66
2018-12-23T04:06:08.503Z,8.68
2018-12-23T04:07:08.548Z,8.65
2018-12-23T04:08:08.786Z,8.65
2018-12-23T04:09:08.683Z,8.68
2018-12-23T04:10:09.297Z,8.66
2018-12-23T04:11:08.480Z,8.66
2018-12-23T04:12:08.485Z,8.64
2018-12-23T04:13:08.497Z,8.64
2018-12-23T04:14:08.620Z,8.65
2018-12-23T04:15:08.832Z,8.64
2018-12-23T04:16:08.488Z,8.61
2018-12-23T04:17:08.460Z,8.64
2018-12-23T04:18:08.665Z,8.64
2018-12-23T04:19:09.286Z,8.61
2018-12-23T04:20:08.602Z,8.61
2018-12-23T04:21:08.667Z,8.61
2018-12-23T04:22:08.509Z,8.59
2018-12-23T04:23:08.561Z,8.59
2018-12-23T04:24:08.537Z,8.58
2018-12-23T04:25:08.424Z,8.59
2018-12-23T04:26:08.654Z,8.59
2018-12-23T04:27:08.486Z,8.59
2018-12-23T04:28:08.484Z,8.61
2018-12-23T04:29:08.454Z,8.61
2018-12-23T04:30:08.423Z,8.59
2018-12-23T04:31:08.514Z,8.61
2018-12-23T04:32:08.525Z,8.59
2018-12-23T04:33:08.536Z,8.58
2018-12-23T04:34:08.520Z,8.59
2018-12-23T04:35:08.497Z,8.57
2018-12-23T04:36:08.712Z,8.58
2018-12-23T04:37:08.542Z,8.59
2018-12-23T04:38:08.572Z,8.59
2018-12-23T04:39:08.572Z,8.57
2018-12-23T04:40:08.513Z,8.57
2018-12-23T04:41:08.635Z,8.57
2018-12-23T04:42:08.647Z,8.55
2018-12-23T04:43:08.530Z,8.57
2018-12-23T04:44:08.424Z,8.57
2018-12-23T04:45:08.934Z,8.52
2018-12-23T04:46:08.565Z,8.54
2018-12-23T04:47:08.543Z,8.57
2018-12-23T04:48:08.396Z,8.54
2018-12-23T04:49:08.426Z,8.54
2018-12-23T04:50:08.457Z,8.55
2018-12-23T04:51:08.577Z,8.54
2018-12-23T04:52:08.467Z,8.54
2018-12-23T04:53:09.250Z,8.52
2018-12-23T04:54:08.442Z,8.55
2018-12-23T04:55:08.671Z,8.55
2018-12-23T04:56:08.416Z,8.54
2018-12-23T04:57:08.404Z,8.55
2018-12-23T04:58:08.503Z,8.57
2018-12-23T04:59:08.428Z,8.54
2018-12-23T05:00:08.487Z,8.54
2018-12-23T05:01:08.658Z,8.52
2018-12-23T05:02:08.935Z,8.57
2018-12-23T05:03:08.497Z,8.54
2018-12-23T05:04:08.483Z,8.51
2018-12-23T05:05:08.528Z,8.52
2018-12-23T05:06:08.469Z,8.49
2018-12-23T05:07:08.399Z,8.52
2018-12-23T05:08:08.394Z,8.48
2018-12-23T05:09:08.487Z,8.48
2018-12-23T05:10:08.491Z,8.47
2018-12-23T05:11:08.791Z,8.48
2018-12-23T05:12:08.431Z,8.47
2018-12-23T05:13:08.408Z,8.45
2018-12-23T05:14:08.387Z,8.44
2018-12-23T05:15:08.407Z,8.48
2018-12-23T05:16:08.394Z,8.44
2018-12-23T05:17:08.380Z,8.44
2018-12-23T05:18:08.386Z,8.45
2018-12-23T05:19:08.365Z,8.45
2018-12-23T05:20:08.387Z,8.45
2018-12-23T05:21:08.329Z,8.44
2018-12-23T05:22:08.404Z,8.44
2018-12-23T05:23:08.437Z,8.48
2018-12-23T05:24:08.367Z,8.47
2018-12-23T05:25:08.358Z,8.44
2018-12-23T05:26:08.342Z,8.43
2018-12-23T05:27:09.057Z,8.47
2018-12-23T05:28:08.749Z,8.47
2018-12-23T05:29:08.319Z,8.47
2018-12-23T05:30:08.564Z,8.45
2018-12-23T05:31:08.333Z,8.45
2018-12-23T05:32:08.404Z,8.47
2018-12-23T05:33:08.478Z,8.48
2018-12-23T05:34:08.784Z,8.47
2018-12-23T05:35:08.566Z,8.47
2018-12-23T05:36:09.150Z,8.48
2018-12-23T05:37:08.619Z,8.44
2018-12-23T05:38:08.342Z,8.48
2018-12-23T05:39:08.539Z,8.45
2018-12-23T05:40:08.631Z,8.45
2018-12-23T05:41:09.167Z,8.44
2018-12-23T05:42:08.475Z,8.44
2018-12-23T05:43:08.522Z,8.45
2018-12-23T05:44:08.697Z,8.48
2018-12-23T05:45:08.532Z,8.45
2018-12-23T05:46:08.559Z,8.44
2018-12-23T05:47:08.402Z,8.47
2018-12-23T05:48:08.374Z,8.47
2018-12-23T05:49:08.465Z,8.44
2018-12-23T05:50:08.435Z,8.45
2018-12-23T05:51:09.608Z,8.45
2018-12-23T05:52:09.169Z,8.44
2018-12-23T05:53:08.602Z,8.43
2018-12-23T05:54:08.400Z,8.43
2018-12-23T05:55:08.471Z,8.41
2018-12-23T05:56:09.023Z,8.41
2018-12-23T05:57:08.584Z,8.43
2018-12-23T05:58:09.333Z,8.4
2018-12-23T05:59:08.556Z,8.43
2018-12-23T06:00:08.408Z,8.44
2018-12-23T06:01:08.302Z,8.43
2018-12-23T06:02:08.677Z,8.41
2018-12-23T06:03:08.360Z,8.43
2018-12-23T06:04:08.430Z,8.38
2018-12-23T06:05:08.508Z,8.41
2018-12-23T06:06:08.500Z,8.41
2018-12-23T06:07:08.385Z,8.4
2018-12-23T06:08:08.663Z,8.4
2018-12-23T06:09:08.299Z,8.43
2018-12-23T06:10:08.309Z,8.4
2018-12-23T06:11:08.438Z,8.38
2018-12-23T06:12:08.370Z,8.37
2018-12-23T06:13:09.098Z,8.37
2018-12-23T06:14:08.471Z,8.37
2018-12-23T06:15:08.431Z,8.37
2018-12-23T06:16:08.453Z,8.36
2018-12-23T06:17:08.366Z,8.38
2018-12-23T06:18:08.260Z,8.37
2018-12-23T06:19:08.722Z,8.36
2018-12-23T06:20:08.387Z,8.37
2018-12-23T06:21:08.475Z,8.36
2018-12-23T06:22:08.684Z,8.34
2018-12-23T06:23:08.315Z,8.33
2018-12-23T06:24:08.439Z,8.34
2018-12-23T06:25:08.327Z,8.31
2018-12-23T06:26:08.355Z,8.31
2018-12-23T06:27:08.498Z,8.3
2018-12-23T06:28:08.300Z,8.31
2018-12-23T06:29:08.328Z,8.31
2018-12-23T06:30:08.314Z,8.31
2018-12-23T06:31:08.505Z,8.33
2018-12-23T06:32:08.462Z,8.33
2018-12-23T06:33:08.271Z,8.33
2018-12-23T06:34:08.358Z,8.33
2018-12-23T06:35:08.452Z,8.34
2018-12-23T06:36:08.288Z,8.33
2018-12-23T06:37:10.579Z,8.33
2018-12-23T06:38:08.419Z,8.37
2018-12-23T06:39:08.533Z,8.34
2018-12-23T06:40:08.643Z,8.33
2018-12-23T06:41:08.461Z,8.33
2018-12-23T06:42:08.394Z,8.33
2018-12-23T06:43:08.427Z,8.3
2018-12-23T06:44:08.414Z,8.31
2018-12-23T06:45:08.456Z,8.3
2018-12-23T06:46:08.377Z,8.36
2018-12-23T06:47:08.280Z,8.36
2018-12-23T06:48:08.338Z,8.34
2018-12-23T06:49:08.344Z,8.36
2018-12-23T06:50:08.322Z,8.36
2018-12-23T06:51:08.296Z,8.33
2018-12-23T06:52:08.549Z,8.34
2018-12-23T06:53:08.290Z,8.36
2018-12-23T06:54:08.295Z,8.34
2018-12-23T06:55:08.256Z,8.34
2018-12-23T06:56:08.261Z,8.33
2018-12-23T06:57:08.250Z,8.33
2018-12-23T06:58:08.219Z,8.36
2018-12-23T06:59:08.277Z,8.33
2018-12-23T07:00:08.254Z,8.36
2018-12-23T07:01:08.568Z,8.33
2018-12-23T07:02:08.266Z,8.31
2018-12-23T07:03:08.219Z,8.31
2018-12-23T07:04:08.356Z,8.33
2018-12-23T07:05:08.250Z,8.3
2018-12-23T07:06:08.366Z,8.3
2018-12-23T07:07:08.207Z,8.27
2018-12-23T07:08:08.352Z,8.3
2018-12-23T07:09:08.352Z,8.29
2018-12-23T07:10:08.247Z,8.29
2018-12-23T07:11:08.754Z,8.3
2018-12-23T07:12:08.383Z,8.27
2018-12-23T07:13:08.613Z,8.27
2018-12-23T07:14:08.494Z,8.27
2018-12-23T07:15:08.286Z,8.27
2018-12-23T07:16:08.246Z,8.26
2018-12-23T07:17:08.306Z,8.27
2018-12-23T07:18:08.434Z,8.23
2018-12-23T07:19:08.295Z,8.24
2018-12-23T07:20:08.328Z,8.23
2018-12-23T07:21:08.541Z,8.23
2018-12-23T07:22:08.265Z,8.23
2018-12-23T07:23:08.383Z,8.23
2018-12-23T07:24:08.306Z,8.23
2018-12-23T07:25:08.384Z,8.21
2018-12-23T07:26:08.232Z,8.23
2018-12-23T07:27:08.979Z,8.2
2018-12-23T07:28:08.609Z,8.21
2018-12-23T07:29:08.283Z,8.21
2018-12-23T07:30:08.423Z,8.17
2018-12-23T07:31:08.408Z,8.2
2018-12-23T07:32:08.537Z,8.19
2018-12-23T07:33:08.473Z,8.19
2018-12-23T07:34:08.248Z,8.17
2018-12-23T07:35:08.389Z,8.17
2018-12-23T07:36:08.207Z,8.19
2018-12-23T07:37:08.355Z,8.19
2018-12-23T07:38:08.423Z,8.19
2018-12-23T07:39:08.541Z,8.2
2018-12-23T07:40:08.604Z,8.19
2018-12-23T07:41:08.404Z,8.19
2018-12-23T07:42:08.392Z,8.19
2018-12-23T07:43:08.431Z,8.17
2018-12-23T07:44:08.251Z,8.19
2018-12-23T07:45:08.174Z,8.17
2018-12-23T07:46:08.327Z,8.19
2018-12-23T07:47:08.244Z,8.14
2018-12-23T07:48:08.296Z,8.19
2018-12-23T07:49:08.693Z,8.2
2018-12-23T07:50:08.366Z,8.17
2018-12-23T07:51:08.184Z,8.19
2018-12-23T07:52:08.177Z,8.2
2018-12-23T07:53:08.343Z,8.17
2018-12-23T07:54:08.179Z,8.19
2018-12-23T07:55:08.253Z,8.17
2018-12-23T07:56:08.300Z,8.2
2018-12-23T07:57:08.356Z,8.2
2018-12-23T07:58:08.215Z,8.19
2018-12-23T07:59:08.218Z,8.19
2018-12-23T08:00:08.248Z,8.19
2018-12-23T08:01:08.183Z,8.19
2018-12-23T08:02:08.135Z,8.2
2018-12-23T08:03:08.318Z,8.21
2018-12-23T08:04:08.202Z,8.2
2018-12-23T08:05:08.322Z,8.19
2018-12-23T08:06:08.409Z,8.21
2018-12-23T08:07:08.237Z,8.2
2018-12-23T08:08:08.136Z,8.19
2018-12-23T08:09:08.322Z,8.17
2018-12-23T08:10:08.382Z,8.23
2018-12-23T08:11:08.750Z,8.2
2018-12-23T08:12:08.377Z,8.21
2018-12-23T08:13:08.414Z,8.2
2018-12-23T08:14:08.446Z,8.21
2018-12-23T08:15:08.265Z,8.23
2018-12-23T08:16:08.965Z,8.21
2018-12-23T08:17:08.221Z,8.24
2018-12-23T08:18:08.288Z,8.23
2018-12-23T08:19:08.968Z,8.24
2018-12-23T08:20:08.230Z,8.24
2018-12-23T08:21:08.445Z,8.26
2018-12-23T08:22:08.759Z,8.27
2018-12-23T08:23:08.216Z,8.29
2018-12-23T08:24:10.151Z,8.29
2018-12-23T08:25:08.213Z,8.3
2018-12-23T08:26:08.177Z,8.29
2018-12-23T08:27:08.141Z,8.34
2018-12-23T08:28:08.249Z,8.33
2018-12-23T08:29:08.215Z,8.34
2018-12-23T08:30:08.146Z,8.37
2018-12-23T08:31:08.149Z,8.36
2018-12-23T08:32:08.227Z,8.4
2018-12-23T08:33:08.135Z,8.38
2018-12-23T08:34:08.127Z,8.43
2018-12-23T08:35:08.181Z,8.44
2018-12-23T08:36:08.147Z,8.45
2018-12-23T08:37:12.003Z,8.45
2018-12-23T08:38:08.151Z,8.45
2018-12-23T08:39:08.307Z,8.48
2018-12-23T08:40:08.185Z,8.49
2018-12-23T08:41:08.129Z,8.49
2018-12-23T08:42:08.138Z,8.51
2018-12-23T08:43:08.108Z,8.52
2018-12-23T08:44:08.095Z,8.52
2018-12-23T08:45:08.145Z,8.54
2018-12-23T08:46:08.147Z,8.55
2018-12-23T08:47:08.278Z,8.57
2018-12-23T08:48:08.447Z,8.54
2018-12-23T08:49:08.551Z,8.55
2018-12-23T08:50:08.356Z,8.54
2018-12-23T08:51:08.188Z,8.59
2018-12-23T08:52:08.272Z,8.58
2018-12-23T08:53:09.155Z,8.57
2018-12-23T08:54:08.117Z,8.55
2018-12-23T08:55:08.688Z,8.59
2018-12-23T08:56:08.287Z,8.61
2018-12-23T08:57:08.276Z,8.59
2018-12-23T08:58:08.382Z,8.61
2018-12-23T08:59:08.289Z,8.61
2018-12-23T09:00:08.172Z,8.61
2018-12-23T09:01:08.199Z,8.64
2018-12-23T09:02:08.102Z,8.64
2018-12-23T09:03:08.147Z,8.66
2018-12-23T09:04:08.379Z,8.68
2018-12-23T09:05:08.081Z,8.69
2018-12-23T09:06:08.091Z,8.71
2018-12-23T09:07:08.247Z,8.71
2018-12-23T09:08:08.114Z,8.69
2018-12-23T09:09:08.163Z,8.72
2018-12-23T09:10:08.199Z,8.74
2018-12-23T09:11:08.048Z,8.69
2018-12-23T09:12:08.227Z,8.74
2018-12-23T09:13:08.345Z,8.76
2018-12-23T09:14:08.292Z,8.76
2018-12-23T09:15:08.897Z,8.76
2018-12-23T09:16:08.259Z,8.78
2018-12-23T09:17:08.093Z,8.8
2018-12-23T09:18:08.691Z,8.82
2018-12-23T09:19:08.177Z,8.79
2018-12-23T09:20:08.883Z,8.83
2018-12-23T09:21:08.348Z,8.86
2018-12-23T09:22:08.411Z,8.86
2018-12-23T09:23:08.356Z,8.88
2018-12-23T09:24:08.204Z,8.92
2018-12-23T09:25:08.450Z,8.92
2018-12-23T09:26:08.137Z,8.93
2018-12-23T09:27:08.098Z,8.95
2018-12-23T09:28:09.131Z,8.98
2018-12-23T09:29:08.464Z,8.98
2018-12-23T09:30:08.253Z,9
2018-12-23T09:31:08.065Z,8.99
2018-12-23T09:32:09.189Z,8.99
2018-12-23T09:33:08.142Z,9.02
2018-12-23T09:34:08.247Z,9
2018-12-23T09:35:08.880Z,9.03
2018-12-23T09:36:08.204Z,9.04
2018-12-23T09:37:08.317Z,9.06
2018-12-23T09:38:08.655Z,9.06
2018-12-23T09:39:08.129Z,9.06
2018-12-23T09:40:08.164Z,9.1
2018-12-23T09:41:08.032Z,9.1
2018-12-23T09:42:08.182Z,9.11
2018-12-23T09:43:08.314Z,9.1
2018-12-23T09:44:08.041Z,9.13
2018-12-23T09:45:08.371Z,9.14
2018-12-23T09:46:08.238Z,9.16
2018-12-23T09:47:08.106Z,9.16
2018-12-23T09:48:08.130Z,9.16
2018-12-23T09:49:08.194Z,9.19
2018-12-23T09:50:08.374Z,9.19
2018-12-23T09:51:08.348Z,9.2
2018-12-23T09:52:08.422Z,9.21
2018-12-23T09:53:08.034Z,9.23
2018-12-23T09:54:08.215Z,9.24
2018-12-23T09:55:08.321Z,9.24
2018-12-23T09:56:08.234Z,9.26
2018-12-23T09:57:08.478Z,9.26
2018-12-23T09:58:08.009Z,9.27
2018-12-23T09:59:08.275Z,9.3
2018-12-23T10:00:08.417Z,9.34
2018-12-23T10:01:08.196Z,9.33
2018-12-23T10:02:08.082Z,9.37
2018-12-23T10:03:08.068Z,9.33
2018-12-23T10:04:08.212Z,9.34
2018-12-23T10:05:08.302Z,9.33
2018-12-23T10:06:08.103Z,9.35
2018-12-23T10:07:08.063Z,9.34
2018-12-23T10:08:10.619Z,9.35
2018-12-23T10:09:08.070Z,9.38
2018-12-23T10:10:08.143Z,9.38
2018-12-23T10:11:08.054Z,9.37
2018-12-23T10:12:07.998Z,9.38
2018-12-23T10:13:08.280Z,9.37
2018-12-23T10:14:08.055Z,9.35
2018-12-23T10:15:08.303Z,9.4
2018-12-23T10:16:08.028Z,9.4
2018-12-23T10:17:08.035Z,9.42
2018-12-23T10:18:08.027Z,9.41
2018-12-23T10:19:08.079Z,9.42
2018-12-23T10:20:07.996Z,9.42
2018-12-23T10:21:10.307Z,9.48
2018-12-23T10:22:08.007Z,9.45
2018-12-23T10:23:08.123Z,9.45
2018-12-23T10:24:08.038Z,9.44
2018-12-23T10:25:07.995Z,9.45
2018-12-23T10:26:08.026Z,9.47
2018-12-23T10:27:08.014Z,9.47
2018-12-23T10:28:08.051Z,9.45
2018-12-23T10:29:08.207Z,9.48
2018-12-23T10:30:08.029Z,9.47
2018-12-23T10:31:08.068Z,9.49
2018-12-23T10:32:08.146Z,9.49
2018-12-23T10:33:08.156Z,9.49
2018-12-23T10:34:08.055Z,9.54
2018-12-23T10:35:08.222Z,9.52
2018-12-23T10:36:07.953Z,9.55
2018-12-23T10:37:08.052Z,9.55
2018-12-23T10:38:07.972Z,9.57
2018-12-23T10:39:08.321Z,9.59
2018-12-23T10:40:08.858Z,9.55
2018-12-23T10:41:08.064Z,9.59
2018-12-23T10:42:08.059Z,9.61
2018-12-23T10:43:08.345Z,9.62
2018-12-23T10:44:08.397Z,9.62
2018-12-23T10:45:08.288Z,9.59
2018-12-23T10:46:08.316Z,9.59
2018-12-23T10:47:08.096Z,9.62
2018-12-23T10:48:08.050Z,9.59
2018-12-23T10:49:08.065Z,9.61
2018-12-23T10:50:08.417Z,9.58
2018-12-23T10:51:08.102Z,9.61
2018-12-23T10:52:07.995Z,9.61
2018-12-23T10:53:08.478Z,9.62
2018-12-23T10:54:08.123Z,9.62
2018-12-23T10:55:08.220Z,9.61
2018-12-23T10:56:08.845Z,9.59
2018-12-23T10:57:08.042Z,9.66
2018-12-23T10:58:07.970Z,9.63
2018-12-23T10:59:08.150Z,9.65
2018-12-23T11:00:07.976Z,9.62
2018-12-23T11:01:08.011Z,9.65
2018-12-23T11:02:14.131Z,9.63
2018-12-23T11:03:07.951Z,9.66
2018-12-23T11:04:08.006Z,9.65
2018-12-23T11:05:08.167Z,9.63
2018-12-23T11:06:08.031Z,9.65
2018-12-23T11:07:08.478Z,9.65
2018-12-23T11:08:08.104Z,9.62
2018-12-23T11:09:08.118Z,9.63
2018-12-23T11:10:08.014Z,9.68
2018-12-23T11:11:09.080Z,9.66
2018-12-23T11:12:08.041Z,9.65
2018-12-23T11:13:07.986Z,9.66
2018-12-23T11:14:07.994Z,9.63
2018-12-23T11:15:08.122Z,9.66
2018-12-23T11:16:08.031Z,9.68
2018-12-23T11:17:07.999Z,9.66
2018-12-23T11:18:08.014Z,9.66
2018-12-23T11:19:08.201Z,9.72
2018-12-23T11:20:08.143Z,9.72
2018-12-23T11:21:08.077Z,9.72
2018-12-23T11:22:08.482Z,9.76
2018-12-23T11:23:08.306Z,9.75
2018-12-23T11:24:08.158Z,9.72
2018-12-23T11:25:07.885Z,9.73
2018-12-23T11:26:08.203Z,9.72
2018-12-23T11:27:08.107Z,9.7
2018-12-23T11:28:08.256Z,9.69
2018-12-23T11:29:08.211Z,9.69
2018-12-23T11:30:08.333Z,9.69
2018-12-23T11:31:08.060Z,9.7
2018-12-23T11:32:08.166Z,9.69
2018-12-23T11:33:08.038Z,9.68
2018-12-23T11:34:08.140Z,9.68
2018-12-23T11:35:07.963Z,9.66
2018-12-23T11:36:08.023Z,9.66
2018-12-23T11:37:08.278Z,9.66
2018-12-23T11:38:08.106Z,9.68
2018-12-23T11:39:07.986Z,9.66
2018-12-23T11:40:08.736Z,9.65
2018-12-23T11:41:07.898Z,9.63
2018-12-23T11:42:07.973Z,9.63
2018-12-23T11:43:08.278Z,9.63
2018-12-23T11:44:09.028Z,9.65
2018-12-23T11:45:08.005Z,9.65
2018-12-23T11:46:08.191Z,9.63
2018-12-23T11:47:08.756Z,9.62
2018-12-23T11:48:08.324Z,9.62
2018-12-23T11:49:08.092Z,9.62
2018-12-23T11:50:07.996Z,9.62
2018-12-23T11:51:08.006Z,9.62
2018-12-23T11:52:07.965Z,9.62
2018-12-23T11:53:07.882Z,9.59
2018-12-23T11:54:08.057Z,9.61
2018-12-23T11:55:07.963Z,9.59
2018-12-23T11:56:08.073Z,9.59
2018-12-23T11:57:08.030Z,9.61
2018-12-23T11:58:08.005Z,9.58
2018-12-23T11:59:07.994Z,9.58
2018-12-23T12:00:08.023Z,9.57
2018-12-23T12:01:07.973Z,9.58
2018-12-23T12:02:15.675Z,9.57
2018-12-23T12:03:08.012Z,9.57
2018-12-23T12:04:07.981Z,9.54
2018-12-23T12:05:07.855Z,9.55
2018-12-23T12:06:08.316Z,9.52
2018-12-23T12:07:07.870Z,9.52
2018-12-23T12:08:07.966Z,9.49
2018-12-23T12:09:07.856Z,9.51
2018-12-23T12:10:08.094Z,9.49
2018-12-23T12:11:07.937Z,9.47
2018-12-23T12:12:07.838Z,9.48
2018-12-23T12:13:07.970Z,9.47
2018-12-23T12:14:08.225Z,9.45
2018-12-23T12:15:07.878Z,9.42
2018-12-23T12:16:08.247Z,9.42
2018-12-23T12:17:08.226Z,9.41
2018-12-23T12:18:08.113Z,9.4
2018-12-23T12:19:07.828Z,9.4
2018-12-23T12:20:08.032Z,9.41
2018-12-23T12:21:07.796Z,9.4
2018-12-23T12:22:07.828Z,9.4
2018-12-23T12:23:08.016Z,9.4
2018-12-23T12:24:08.306Z,9.4
2018-12-23T12:25:07.843Z,9.38
2018-12-23T12:26:08.011Z,9.35
2018-12-23T12:27:07.962Z,9.37
2018-12-23T12:28:08.121Z,9.35
2018-12-23T12:29:08.082Z,9.35
2018-12-23T12:30:08.031Z,9.34
2018-12-23T12:31:07.839Z,9.33
2018-12-23T12:32:08.475Z,9.33
2018-12-23T12:33:08.216Z,9.35
2018-12-23T12:34:08.040Z,9.31
2018-12-23T12:35:08.168Z,9.29
2018-12-23T12:36:08.030Z,9.3
2018-12-23T12:37:08.001Z,9.29
2018-12-23T12:38:08.194Z,9.27
2018-12-23T12:39:08.095Z,9.31
2018-12-23T12:40:07.835Z,9.29
2018-12-23T12:41:08.116Z,9.27
2018-12-23T12:42:08.155Z,9.27
2018-12-23T12:43:07.972Z,9.27
2018-12-23T12:44:08.087Z,9.23
2018-12-23T12:45:08.076Z,9.24
2018-12-23T12:46:08.072Z,9.24
2018-12-23T12:47:07.991Z,9.2
2018-12-23T12:48:08.100Z,9.21
2018-12-23T12:49:08.634Z,9.21
2018-12-23T12:50:08.116Z,9.23
2018-12-23T12:51:08.002Z,9.21
2018-12-23T12:52:07.924Z,9.21
2018-12-23T12:53:07.824Z,9.2
2018-12-23T12:54:07.952Z,9.2
2018-12-23T12:55:08.162Z,9.2
2018-12-23T12:56:08.103Z,9.2
2018-12-23T12:57:08.061Z,9.19
2018-12-23T12:58:07.809Z,9.17
2018-12-23T12:59:08.033Z,9.17
2018-12-23T13:00:07.789Z,9.2
2018-12-23T13:01:08.030Z,9.19
2018-12-23T13:02:08.622Z,9.2
2018-12-23T13:03:08.010Z,9.19
2018-12-23T13:04:07.823Z,9.17
2018-12-23T13:05:07.962Z,9.19
2018-12-23T13:06:08.070Z,9.16
2018-12-23T13:07:07.971Z,9.17
2018-12-23T13:08:07.957Z,9.19
2018-12-23T13:09:08.107Z,9.16
2018-12-23T13:10:07.986Z,9.17
2018-12-23T13:11:07.771Z,9.19
2018-12-23T13:12:07.773Z,9.16
2018-12-23T13:13:08.181Z,9.17
2018-12-23T13:14:08.189Z,9.16
2018-12-23T13:15:09.374Z,9.17
2018-12-23T13:16:07.798Z,9.17
2018-12-23T13:17:07.931Z,9.17
2018-12-23T13:18:08.231Z,9.16
2018-12-23T13:19:08.628Z,9.17
2018-12-23T13:20:07.953Z,9.17
2018-12-23T13:21:07.766Z,9.19
2018-12-23T13:22:07.988Z,9.17
2018-12-23T13:23:07.958Z,9.14
2018-12-23T13:24:07.784Z,9.17
2018-12-23T13:25:07.886Z,9.17
2018-12-23T13:26:08.014Z,9.17
2018-12-23T13:27:07.806Z,9.16
2018-12-23T13:28:08.009Z,9.16
2018-12-23T13:29:07.916Z,9.16
2018-12-23T13:30:08.022Z,9.14
2018-12-23T13:31:07.896Z,9.14
2018-12-23T13:32:07.911Z,9.13
2018-12-23T13:33:07.780Z,9.14
2018-12-23T13:34:07.776Z,9.13
2018-12-23T13:35:07.808Z,9.11